createdAt,value
2018-01-19T00:00:12.674Z,99.90
2018-01-19T00:02:40.214Z,99.90
2018-01-19T00:05:08.517Z,99.90
2018-01-19T00:07:36.061Z,99.90
2018-01-19T00:10:03.582Z,99.90
2018-01-19T00:12:31.176Z,99.90
2018-01-19T00:14:58.860Z,99.90
2018-01-19T00:17:26.619Z,99.90
2018-01-19T00:19:54.424Z,99.90
2018-01-19T00:22:23.186Z,99.90
2018-01-19T00:24:50.946Z,99.90
2018-01-19T00:27:18.609Z,99.90
2018-01-19T00:29:46.176Z,99.90
2018-01-19T00:32:13.962Z,99.90
2018-01-19T00:34:41.526Z,99.90
2018-01-19T00:37:09.066Z,99.90
2018-01-19T00:39:36.971Z,99.90
2018-01-19T00:42:04.490Z,99.90
2018-01-19T00:44:32.038Z,99.90
2018-01-19T00:46:59.628Z,99.90
2018-01-19T00:49:27.274Z,99.90
2018-01-19T00:51:54.968Z,99.90
2018-01-19T00:54:23.816Z,99.90
2018-01-19T00:56:52.132Z,99.90
2018-01-19T00:59:20.575Z,99.90
2018-01-19T01:01:50.084Z,99.90
2018-01-19T01:04:18.707Z,99.90
2018-01-19T01:06:47.017Z,99.90
2018-01-19T01:09:15.317Z,99.90
2018-01-19T01:11:42.980Z,99.90
2018-01-19T01:14:10.512Z,99.90
2018-01-19T01:16:38.824Z,99.90
2018-01-19T01:19:06.344Z,99.90
2018-01-19T01:21:34.662Z,99.90
2018-01-19T01:24:02.209Z,99.90
2018-01-19T01:26:29.983Z,99.90
2018-01-19T01:28:57.567Z,99.90
2018-01-19T01:31:25.210Z,99.90
2018-01-19T01:33:54.212Z,99.90
2018-01-19T01:36:22.322Z,99.90
2018-01-19T01:38:50.243Z,99.90
2018-01-19T01:41:25.381Z,99.90
2018-01-19T01:43:53.433Z,99.90
2018-01-19T01:46:21.730Z,99.90
2018-01-19T01:49:02.287Z,99.90
2018-01-19T01:51:30.051Z,99.90
2018-01-19T01:53:57.822Z,99.90
2018-01-19T01:56:25.608Z,99.90
2018-01-19T01:58:53.561Z,99.90
2018-01-19T02:01:21.387Z,99.90
2018-01-19T02:03:49.912Z,99.90
2018-01-19T02:06:18.911Z,99.90
2018-01-19T02:08:46.521Z,99.90
2018-01-19T02:11:14.833Z,99.90
2018-01-19T02:13:42.354Z,99.90
2018-01-19T02:16:09.901Z,99.90
2018-01-19T02:18:38.031Z,99.90
2018-01-19T02:21:06.363Z,99.90
2018-01-19T02:23:33.907Z,99.90
2018-01-19T02:26:01.458Z,99.90
2018-01-19T02:28:29.096Z,99.90
2018-01-19T02:30:56.755Z,99.90
2018-01-19T02:33:24.523Z,99.90
2018-01-19T02:35:52.289Z,99.90
2018-01-19T02:38:20.711Z,99.90
2018-01-19T02:40:50.170Z,99.90
2018-01-19T02:43:17.751Z,99.90
2018-01-19T02:45:45.273Z,99.90
2018-01-19T02:48:12.823Z,99.90
2018-01-19T02:50:41.128Z,99.90
2018-01-19T02:53:08.661Z,99.90
2018-01-19T02:55:36.965Z,99.90
2018-01-19T02:58:04.498Z,99.90
2018-01-19T03:00:32.949Z,99.90
2018-01-19T03:03:00.670Z,99.90
2018-01-19T03:05:28.447Z,99.90
2018-01-19T03:07:56.251Z,99.90
2018-01-19T03:10:24.399Z,99.90
2018-01-19T03:12:52.762Z,99.90
2018-01-19T03:15:21.850Z,99.90
2018-01-19T03:17:50.849Z,99.90
2018-01-19T03:20:22.100Z,99.90
2018-01-19T03:22:50.775Z,99.90
2018-01-19T03:25:22.477Z,99.90
2018-01-19T03:27:50.733Z,99.90
2018-01-19T03:30:18.346Z,99.90
2018-01-19T03:32:45.960Z,99.90
2018-01-19T03:35:13.476Z,99.90
2018-01-19T03:37:41.012Z,99.90
2018-01-19T03:40:09.300Z,99.90
2018-01-19T03:42:37.588Z,99.90
2018-01-19T03:45:05.345Z,99.90
2018-01-19T03:47:33.235Z,99.90
2018-01-19T03:50:01.208Z,99.90
2018-01-19T03:52:29.791Z,99.90
2018-01-19T03:54:57.966Z,99.90
2018-01-19T03:57:26.241Z,99.90
2018-01-19T03:59:54.746Z,99.90
2018-01-19T04:02:23.733Z,99.90
2018-01-19T04:04:53.183Z,99.90
2018-01-19T04:07:22.188Z,99.90
2018-01-19T04:09:51.463Z,99.90
2018-01-19T04:12:19.999Z,99.90
2018-01-19T04:14:47.648Z,99.90
2018-01-19T04:17:15.167Z,99.90
2018-01-19T04:19:42.708Z,99.90
2018-01-19T04:22:10.221Z,99.90
2018-01-19T04:24:37.815Z,99.90
2018-01-19T04:27:05.452Z,99.90
2018-01-19T04:29:33.280Z,99.90
2018-01-19T04:32:01.121Z,99.90
2018-01-19T04:34:28.762Z,99.90
2018-01-19T04:36:57.737Z,99.90
2018-01-19T04:39:25.940Z,99.90
2018-01-19T04:41:54.092Z,99.90
2018-01-19T04:44:23.221Z,99.90
2018-01-19T04:46:53.204Z,99.90
2018-01-19T04:49:22.432Z,99.90
2018-01-19T04:51:51.739Z,99.90
2018-01-19T04:54:21.118Z,99.90
2018-01-19T04:56:50.316Z,99.90
2018-01-19T04:59:18.657Z,99.90
2018-01-19T05:01:46.948Z,99.90
2018-01-19T05:04:14.493Z,99.90
2018-01-19T05:06:42.058Z,99.90
2018-01-19T05:09:10.340Z,99.90
2018-01-19T05:11:38.635Z,99.90
2018-01-19T05:14:06.165Z,99.90
2018-01-19T05:16:34.828Z,99.90
2018-01-19T05:19:03.681Z,99.90
2018-01-19T05:21:31.565Z,99.90
2018-01-19T05:23:59.313Z,99.90
2018-01-19T05:26:40.375Z,99.90
2018-01-19T05:29:08.765Z,99.90
2018-01-19T05:31:36.313Z,99.90
2018-01-19T05:34:04.353Z,99.90
2018-01-19T05:36:33.252Z,99.90
2018-01-19T05:39:01.884Z,99.90
2018-01-19T05:41:30.665Z,99.90
2018-01-19T05:43:58.969Z,99.90
2018-01-19T05:46:27.318Z,99.90
2018-01-19T05:48:55.394Z,99.90
2018-01-19T05:51:24.389Z,99.90
2018-01-19T05:53:52.665Z,99.90
2018-01-19T05:56:20.953Z,99.90
2018-01-19T05:58:50.855Z,99.90
2018-01-19T06:01:19.147Z,99.90
2018-01-19T06:03:46.680Z,99.90
2018-01-19T06:06:14.212Z,99.90
2018-01-19T06:08:41.763Z,99.90
2018-01-19T06:11:09.280Z,99.90
2018-01-19T06:13:36.846Z,99.90
2018-01-19T06:16:04.505Z,99.90
2018-01-19T06:18:32.195Z,99.90
2018-01-19T06:21:00.647Z,99.90
2018-01-19T06:23:28.916Z,99.90
2018-01-19T06:25:58.033Z,99.90
2018-01-19T06:28:27.209Z,99.90
2018-01-19T06:30:57.081Z,99.90
2018-01-19T06:33:25.980Z,99.90
2018-01-19T06:35:54.702Z,99.90
2018-01-19T06:38:24.627Z,99.90
2018-01-19T06:40:53.287Z,99.90
2018-01-19T06:43:22.093Z,99.90
2018-01-19T06:45:50.695Z,99.90
2018-01-19T06:48:18.312Z,99.90
2018-01-19T06:50:47.230Z,99.90
2018-01-19T06:53:14.996Z,99.90
2018-01-19T06:55:42.658Z,99.90
2018-01-19T06:58:10.175Z,99.90
2018-01-19T07:00:39.007Z,99.90
2018-01-19T07:03:06.535Z,99.90
2018-01-19T07:05:34.821Z,99.90
2018-01-19T07:08:02.364Z,99.90
2018-01-19T07:10:30.271Z,99.90
2018-01-19T07:12:58.803Z,99.90
2018-01-19T07:15:27.594Z,99.90
2018-01-19T07:17:55.812Z,99.90
2018-01-19T07:20:25.131Z,99.90
2018-01-19T07:22:53.190Z,99.90
2018-01-19T07:25:21.981Z,99.90
2018-01-19T07:27:51.178Z,99.90
2018-01-19T07:30:20.099Z,99.90
2018-01-19T07:32:49.172Z,99.90
2018-01-19T07:35:17.728Z,99.90
2018-01-19T07:37:46.360Z,99.90
2018-01-19T07:40:13.982Z,99.90
2018-01-19T07:42:41.497Z,99.90
2018-01-19T07:45:09.010Z,99.90
2018-01-19T07:47:36.556Z,99.90
2018-01-19T07:50:04.422Z,99.90
2018-01-19T07:52:31.935Z,99.90
2018-01-19T07:55:00.392Z,99.90
2018-01-19T07:57:28.257Z,99.90
2018-01-19T07:59:56.142Z,99.90
2018-01-19T08:02:23.988Z,99.90
2018-01-19T08:04:52.156Z,99.90
2018-01-19T08:07:21.563Z,99.90
2018-01-19T08:09:51.363Z,99.90
2018-01-19T08:12:19.108Z,99.90
2018-01-19T08:14:46.649Z,99.90
2018-01-19T08:17:14.592Z,99.90
2018-01-19T08:19:42.910Z,99.90
2018-01-19T08:22:11.194Z,99.90
2018-01-19T08:24:39.506Z,99.90
2018-01-19T08:27:07.023Z,99.90
2018-01-19T08:29:35.317Z,99.90
2018-01-19T08:32:03.136Z,99.90
2018-01-19T08:34:30.826Z,99.90
2018-01-19T08:36:58.629Z,99.90
2018-01-19T08:39:26.559Z,99.90
2018-01-19T08:41:54.367Z,99.90
2018-01-19T08:44:23.087Z,99.90
2018-01-19T08:46:51.566Z,99.90
2018-01-19T08:49:20.016Z,99.90
2018-01-19T08:51:47.632Z,99.90
2018-01-19T08:54:16.596Z,99.90
2018-01-19T08:56:44.156Z,99.90
2018-01-19T08:59:11.680Z,99.90
2018-01-19T09:01:39.565Z,99.90
2018-01-19T09:04:07.084Z,99.90
2018-01-19T09:06:35.513Z,99.90
2018-01-19T09:09:03.461Z,99.90
2018-01-19T09:11:30.984Z,99.90
2018-01-19T09:13:59.264Z,99.90
2018-01-19T09:16:28.088Z,99.90
2018-01-19T09:18:55.864Z,99.90
2018-01-19T09:21:24.644Z,99.90
2018-01-19T09:23:53.411Z,99.90
2018-01-19T09:26:22.645Z,99.90
2018-01-19T09:28:50.996Z,99.90
2018-01-19T09:31:19.804Z,99.90
2018-01-19T09:33:48.161Z,99.90
2018-01-19T09:36:16.616Z,99.90
2018-01-19T09:38:44.195Z,99.90
2018-01-19T09:41:12.701Z,99.90
2018-01-19T09:43:40.220Z,99.90
2018-01-19T09:46:08.964Z,99.90
2018-01-19T09:48:36.492Z,99.90
2018-01-19T09:51:04.032Z,99.90
2018-01-19T09:53:32.397Z,99.90
2018-01-19T09:56:00.704Z,99.90
2018-01-19T09:58:28.797Z,99.90
2018-01-19T10:00:56.458Z,99.90
2018-01-19T10:03:24.744Z,99.90
2018-01-19T10:05:52.501Z,99.90
2018-01-19T10:08:20.403Z,99.90
2018-01-19T10:10:48.776Z,99.90
2018-01-19T10:13:16.289Z,99.90
2018-01-19T10:15:43.829Z,99.90
2018-01-19T10:18:12.108Z,99.90
2018-01-19T10:20:40.384Z,99.90
2018-01-19T10:23:08.700Z,99.90
2018-01-19T10:25:36.212Z,99.90
2018-01-19T10:28:04.992Z,99.90
2018-01-19T10:30:32.712Z,99.90
2018-01-19T10:33:00.523Z,99.90
2018-01-19T10:35:28.451Z,99.90
2018-01-19T10:37:57.374Z,99.90
2018-01-19T10:40:26.128Z,99.90
2018-01-19T10:42:54.300Z,99.90
2018-01-19T10:45:22.213Z,99.90
2018-01-19T10:47:50.274Z,99.90
2018-01-19T10:50:17.906Z,99.90
2018-01-19T10:52:46.425Z,99.90
2018-01-19T10:55:13.939Z,99.90
2018-01-19T10:57:41.450Z,99.90
2018-01-19T11:00:08.989Z,99.90
2018-01-19T11:02:36.505Z,99.90
2018-01-19T11:05:04.020Z,99.90
2018-01-19T11:07:31.652Z,99.90
2018-01-19T11:09:59.386Z,99.90
2018-01-19T11:12:27.012Z,99.90
2018-01-19T11:14:56.185Z,99.90
2018-01-19T11:17:23.824Z,99.90
2018-01-19T11:19:52.127Z,99.90
2018-01-19T11:22:19.973Z,99.90
2018-01-19T11:24:47.495Z,99.90
2018-01-19T11:27:15.900Z,99.90
2018-01-19T11:29:43.509Z,99.90
2018-01-19T11:32:11.029Z,99.90
2018-01-19T11:34:38.572Z,99.90
2018-01-19T11:37:06.873Z,99.90
2018-01-19T11:39:34.486Z,99.90
2018-01-19T11:42:02.940Z,99.90
2018-01-19T11:44:30.741Z,99.90
2018-01-19T11:46:58.520Z,99.90
2018-01-19T11:49:26.310Z,99.90
2018-01-19T11:51:54.234Z,99.90
2018-01-19T11:54:23.078Z,99.90
2018-01-19T11:56:51.960Z,99.90
2018-01-19T11:59:21.258Z,99.90
2018-01-19T12:01:49.743Z,99.90
2018-01-19T12:04:17.285Z,99.90
2018-01-19T12:06:44.824Z,99.90
2018-01-19T12:09:12.427Z,99.90
2018-01-19T12:11:39.932Z,99.90
2018-01-19T12:14:07.468Z,99.90
2018-01-19T12:16:35.004Z,99.90
2018-01-19T12:19:02.661Z,99.90
2018-01-19T12:21:30.630Z,99.90
2018-01-19T12:23:58.294Z,99.90
2018-01-19T12:26:26.119Z,99.90
2018-01-19T12:28:55.051Z,99.90
2018-01-19T12:31:24.816Z,99.90
2018-01-19T12:33:53.838Z,99.90
2018-01-19T12:36:22.285Z,99.90
2018-01-19T12:38:53.186Z,99.90
2018-01-19T12:41:20.961Z,99.90
2018-01-19T12:43:49.219Z,99.90
2018-01-19T12:46:16.941Z,99.90
2018-01-19T12:48:45.033Z,99.90
2018-01-19T12:51:12.584Z,99.80
2018-01-19T12:53:40.129Z,99.90
2018-01-19T12:56:07.644Z,99.90
2018-01-19T12:58:35.179Z,99.90
2018-01-19T13:01:02.704Z,99.90
2018-01-19T13:03:30.603Z,99.90
2018-01-19T13:05:58.590Z,99.90
2018-01-19T13:08:26.397Z,99.90
2018-01-19T13:10:55.041Z,99.90
2018-01-19T13:13:23.368Z,99.90
2018-01-19T13:15:52.012Z,99.90
2018-01-19T13:18:19.974Z,99.90
2018-01-19T13:20:47.717Z,99.90
2018-01-19T13:23:15.245Z,99.90
2018-01-19T13:25:42.904Z,99.90
2018-01-19T13:28:11.229Z,99.90
2018-01-19T13:30:38.748Z,99.90
2018-01-19T13:33:06.309Z,99.90
2018-01-19T13:35:34.021Z,99.90
2018-01-19T13:38:01.856Z,99.90
2018-01-19T13:40:30.593Z,98.50
2018-01-19T13:42:59.258Z,97.60
2018-01-19T13:45:26.911Z,97.70
2018-01-19T13:47:55.563Z,97.00
2018-01-19T13:50:24.299Z,96.90
2018-01-19T13:52:52.138Z,97.50
2018-01-19T13:55:20.035Z,97.80
2018-01-19T13:57:47.803Z,97.30
2018-01-19T14:00:15.366Z,97.60
2018-01-19T14:02:42.893Z,97.70
2018-01-19T14:05:11.171Z,98.20
2018-01-19T14:07:39.468Z,97.60
2018-01-19T14:10:06.976Z,97.60
2018-01-19T14:12:34.740Z,98.70
2018-01-19T14:15:02.397Z,99.60
2018-01-19T14:17:30.074Z,99.90
2018-01-19T14:19:58.539Z,99.90
2018-01-19T14:22:26.476Z,99.90
2018-01-19T14:24:54.610Z,99.90
2018-01-19T14:27:22.624Z,99.90
2018-01-19T14:29:50.753Z,99.90
2018-01-19T14:32:19.790Z,99.90
2018-01-19T14:34:47.462Z,99.90
2018-01-19T14:37:15.214Z,99.90
2018-01-19T14:39:42.878Z,99.90
2018-01-19T14:42:10.401Z,99.90
2018-01-19T14:44:38.689Z,99.90
2018-01-19T14:47:07.298Z,99.90
2018-01-19T14:49:35.136Z,99.90
2018-01-19T14:52:03.462Z,99.90
2018-01-19T14:54:31.064Z,99.90
2018-01-19T14:56:59.416Z,99.30
2018-01-19T14:59:27.082Z,99.30
2018-01-19T15:01:55.661Z,98.80
2018-01-19T15:04:24.589Z,98.90
2018-01-19T15:06:53.849Z,99.50
2018-01-19T15:09:21.619Z,99.50
2018-01-19T15:11:49.322Z,99.40
2018-01-19T15:14:17.934Z,99.40
2018-01-19T15:16:45.781Z,99.40
2018-01-19T15:19:13.308Z,99.70
2018-01-19T15:21:41.045Z,99.90
2018-01-19T15:24:08.633Z,99.90
2018-01-19T15:26:36.203Z,99.90
2018-01-19T15:29:05.676Z,99.90
2018-01-19T15:31:33.617Z,99.90
2018-01-19T15:34:01.180Z,99.90
2018-01-19T15:36:29.249Z,99.90
2018-01-19T15:38:57.082Z,99.90
2018-01-19T15:41:25.618Z,99.90
2018-01-19T15:43:53.976Z,99.90
2018-01-19T15:46:21.912Z,99.90
2018-01-19T15:48:51.349Z,99.90
2018-01-19T15:51:21.781Z,99.90
2018-01-19T15:53:50.161Z,99.90
2018-01-19T15:56:17.801Z,99.90
2018-01-19T15:58:45.309Z,99.90
2018-01-19T16:01:13.062Z,99.90
2018-01-19T16:03:40.634Z,99.90
2018-01-19T16:06:08.190Z,99.90
2018-01-19T16:08:36.672Z,99.90
2018-01-19T16:11:04.396Z,99.90
2018-01-19T16:13:32.101Z,99.90
2018-01-19T16:15:59.784Z,99.90
2018-01-19T16:18:28.013Z,99.90
2018-01-19T16:20:55.876Z,99.90
2018-01-19T16:23:24.599Z,99.90
2018-01-19T16:25:52.551Z,99.90
2018-01-19T16:28:21.079Z,99.90
2018-01-19T16:30:48.895Z,99.90
2018-01-19T16:33:16.420Z,99.90
2018-01-19T16:35:44.720Z,99.90
2018-01-19T16:38:12.302Z,99.90
2018-01-19T16:40:39.820Z,99.90
2018-01-19T16:43:07.356Z,99.90
2018-01-19T16:45:35.641Z,99.90
2018-01-19T16:48:03.973Z,99.90
2018-01-19T16:50:31.535Z,99.90
2018-01-19T16:52:59.586Z,99.90
2018-01-19T16:55:27.554Z,99.90
2018-01-19T16:57:55.245Z,99.90
2018-01-19T17:00:24.136Z,99.90
2018-01-19T17:02:52.185Z,99.90
2018-01-19T17:05:21.382Z,99.90
2018-01-19T17:07:49.131Z,99.90
2018-01-19T17:10:17.642Z,99.90
2018-01-19T17:12:45.229Z,99.90
2018-01-19T17:15:12.750Z,99.90
2018-01-19T17:17:40.273Z,99.90
2018-01-19T17:20:08.592Z,99.90
2018-01-19T17:22:36.119Z,99.90
2018-01-19T17:25:04.580Z,99.90
2018-01-19T17:27:32.880Z,99.90
2018-01-19T17:30:00.706Z,99.90
2018-01-19T17:32:28.639Z,99.90
2018-01-19T17:34:57.469Z,99.90
2018-01-19T17:37:27.537Z,99.90
2018-01-19T17:39:55.747Z,99.90
2018-01-19T17:42:24.120Z,99.90
2018-01-19T17:44:52.552Z,99.90
2018-01-19T17:47:20.855Z,99.90
2018-01-19T17:49:50.670Z,99.90
2018-01-19T17:52:19.872Z,99.90
2018-01-19T17:54:47.863Z,99.90
2018-01-19T17:57:15.495Z,99.90
2018-01-19T17:59:43.025Z,99.90
2018-01-19T18:02:11.367Z,99.90
2018-01-19T18:04:38.918Z,99.90
2018-01-19T18:07:06.472Z,99.90
2018-01-19T18:09:34.270Z,99.90
2018-01-19T18:12:01.784Z,99.90
2018-01-19T18:14:29.680Z,99.90
2018-01-19T18:16:57.613Z,99.90
2018-01-19T18:19:27.548Z,99.90
2018-01-19T18:21:55.676Z,99.90
2018-01-19T18:24:24.068Z,99.90
2018-01-19T18:26:52.246Z,99.90
2018-01-19T18:29:20.649Z,99.90
2018-01-19T18:31:48.518Z,99.90
2018-01-19T18:34:16.480Z,99.90
2018-01-19T18:36:44.295Z,99.90
2018-01-19T18:39:12.012Z,99.90
2018-01-19T18:41:40.483Z,99.90
2018-01-19T18:44:08.152Z,99.90
2018-01-19T18:46:35.715Z,99.90
2018-01-19T18:49:03.244Z,99.90
2018-01-19T18:51:31.594Z,99.90
2018-01-19T18:54:00.045Z,99.90
2018-01-19T18:56:27.832Z,99.90
2018-01-19T18:58:56.030Z,99.90
2018-01-19T19:01:24.923Z,99.90
2018-01-19T19:03:53.388Z,99.90
2018-01-19T19:06:22.294Z,99.90
2018-01-19T19:08:50.610Z,99.90
2018-01-19T19:11:18.381Z,99.90
2018-01-19T19:13:46.031Z,99.90
2018-01-19T19:16:14.120Z,99.90
2018-01-19T19:18:41.626Z,99.90
2018-01-19T19:21:09.910Z,99.90
2018-01-19T19:23:38.322Z,99.90
2018-01-19T19:26:06.208Z,99.90
2018-01-19T19:28:33.961Z,99.90
2018-01-19T19:31:02.030Z,99.90
2018-01-19T19:33:29.758Z,99.90
2018-01-19T19:35:57.577Z,99.90
2018-01-19T19:38:26.181Z,99.90
2018-01-19T19:40:55.269Z,99.90
2018-01-19T19:43:24.212Z,99.90
2018-01-19T19:45:54.176Z,99.90
2018-01-19T19:48:22.426Z,99.90
2018-01-19T19:50:50.805Z,99.90
2018-01-19T19:53:19.583Z,99.90
2018-01-19T19:55:47.121Z,99.90
2018-01-19T19:58:15.764Z,99.90
2018-01-19T20:00:43.328Z,99.90
2018-01-19T20:03:10.875Z,99.90
2018-01-19T20:05:38.426Z,99.90
2018-01-19T20:08:05.946Z,99.90
2018-01-19T20:10:34.256Z,99.90
2018-01-19T20:13:01.785Z,99.90
2018-01-19T20:15:31.085Z,99.90
2018-01-19T20:17:58.966Z,99.90
2018-01-19T20:20:26.726Z,99.90
2018-01-19T20:22:54.718Z,99.90
2018-01-19T20:25:23.052Z,99.90
2018-01-19T20:27:52.151Z,99.90
2018-01-19T20:30:20.573Z,99.90
2018-01-19T20:32:48.260Z,99.90
2018-01-19T20:35:15.991Z,99.90
2018-01-19T20:37:43.527Z,99.90
2018-01-19T20:40:11.881Z,99.90
2018-01-19T20:42:39.426Z,99.90
2018-01-19T20:45:06.959Z,99.90
2018-01-19T20:47:34.500Z,99.90
2018-01-19T20:50:02.125Z,99.90
2018-01-19T20:52:29.874Z,99.90
2018-01-19T20:54:57.914Z,99.90
2018-01-19T20:57:25.677Z,99.90
2018-01-19T20:59:53.472Z,99.90
2018-01-19T21:02:22.430Z,99.90
2018-01-19T21:04:50.732Z,99.90
2018-01-19T21:07:19.915Z,99.90
2018-01-19T21:09:47.621Z,99.90
2018-01-19T21:12:15.168Z,99.90
2018-01-19T21:14:44.151Z,99.90
2018-01-19T21:17:11.704Z,99.90
2018-01-19T21:19:39.251Z,99.90
2018-01-19T21:22:07.090Z,99.90
2018-01-19T21:24:37.079Z,99.90
2018-01-19T21:27:04.625Z,99.90
2018-01-19T21:29:32.169Z,99.90
2018-01-19T21:32:00.325Z,99.90
2018-01-19T21:34:28.028Z,99.90
2018-01-19T21:36:57.172Z,99.90
2018-01-19T21:39:25.717Z,99.90
2018-01-19T21:41:53.945Z,99.90
2018-01-19T21:44:21.811Z,99.90
2018-01-19T21:46:50.714Z,99.90
2018-01-19T21:49:18.489Z,99.90
2018-01-19T21:51:46.831Z,99.90
2018-01-19T21:54:14.366Z,99.90
2018-01-19T21:56:42.675Z,99.90
2018-01-19T21:59:10.188Z,99.90
2018-01-19T22:01:37.753Z,99.90
2018-01-19T22:04:05.279Z,99.90
2018-01-19T22:06:32.797Z,99.90
2018-01-19T22:09:00.603Z,99.90
2018-01-19T22:11:29.180Z,99.90
2018-01-19T22:13:57.344Z,99.90
2018-01-19T22:16:25.524Z,99.90
2018-01-19T22:18:55.126Z,99.90
2018-01-19T22:21:23.230Z,99.90
2018-01-19T22:23:51.701Z,99.90
2018-01-19T22:26:22.249Z,99.90
2018-01-19T22:28:53.528Z,99.90
2018-01-19T22:31:22.234Z,99.90
2018-01-19T22:33:49.925Z,99.90
2018-01-19T22:36:19.310Z,99.90
2018-01-19T22:38:46.888Z,99.90
2018-01-19T22:41:14.466Z,99.90
2018-01-19T22:43:42.027Z,99.90
2018-01-19T22:46:09.553Z,99.90
2018-01-19T22:48:37.070Z,99.90
2018-01-19T22:51:04.681Z,99.90
2018-01-19T22:53:32.257Z,99.90
2018-01-19T22:55:59.990Z,99.90
2018-01-19T22:58:28.053Z,99.90
2018-01-19T23:00:56.378Z,99.90
2018-01-19T23:03:24.732Z,99.90
2018-01-19T23:05:54.590Z,99.90
2018-01-19T23:08:25.220Z,99.90
2018-01-19T23:10:55.276Z,99.90
2018-01-19T23:13:25.447Z,99.90
2018-01-19T23:15:54.621Z,99.90
2018-01-19T23:18:23.610Z,99.90
2018-01-19T23:20:53.623Z,99.90
2018-01-19T23:23:22.711Z,99.90
2018-01-19T23:25:51.641Z,99.90
2018-01-19T23:28:20.433Z,99.90
2018-01-19T23:30:49.360Z,99.90
2018-01-19T23:33:16.939Z,99.90
2018-01-19T23:35:44.459Z,99.90
2018-01-19T23:38:11.997Z,99.90
2018-01-19T23:40:39.519Z,99.90
2018-01-19T23:43:07.050Z,99.90
2018-01-19T23:45:34.605Z,99.90
2018-01-19T23:48:02.319Z,99.90
2018-01-19T23:50:30.075Z,99.90
2018-01-19T23:52:57.823Z,99.90
2018-01-19T23:55:26.009Z,99.90
2018-01-19T23:57:55.368Z,99.90
